Time;durP1;ratioP1;P1;durP2;ratioP2;P2;SDS_P1;SDS_P2;PMS_P1;PMS_P2;Temp;Humidity;BMP_temperature;BMP_pressure;BME280_temperature;BME280_humidity;BME280_pressure;Samples;Min_cycle;Max_cycle;Signal;HPM_P1;HPM_P2
2022/03/18 00:02:09;;;;;;;;;;;;;;;4.11;66.93;96671.59;5076852;28;956;-49
2022/03/18 00:04:35;;;;;;;;;;;;;;;4.06;67.05;96670.97;5076677;28;964;-49
2022/03/18 00:07:01;;;;;;;;;;;;;;;4.00;67.17;96671.31;5076477;28;1898;-49
2022/03/18 00:09:27;;;;;;;;;;;;;;;3.93;67.44;96668.16;5076695;28;1127;-49
2022/03/18 00:11:53;;;;;;;;;;;;;;;3.96;66.94;96672.44;5076467;28;1030;-49
2022/03/18 00:14:21;;;;;;;;;;;;;;;3.92;67.82;96675.22;5076522;28;1000;-49
2022/03/18 00:16:47;;;;;;;;;;;;;;;3.97;67.21;96680.28;5076480;28;996;-49
2022/03/18 00:19:14;;;;;;;;;;;;;;;3.96;67.40;96673.28;5075969;28;1005;-48
2022/03/18 00:21:40;;;;;;;;;;;;;;;3.89;67.94;96679.84;5076367;28;1020;-49
2022/03/18 00:24:06;;;;;;;;;;;;;;;3.96;66.94;96677.72;5076387;28;1027;-49
2022/03/18 00:26:32;;;;;;;;;;;;;;;4.02;66.85;96683.56;5076241;28;1979;-49
2022/03/18 00:28:58;;;;;;;;;;;;;;;4.01;66.63;96675.69;5076092;28;1024;-49
2022/03/18 00:31:25;;;;;;;;;;;;;;;4.00;66.82;96684.56;5076261;28;1076;-49
2022/03/18 00:33:51;;;;;;;;;;;;;;;4.04;67.33;96686.97;5075992;28;1020;-49
2022/03/18 00:36:17;;;;;;;;;;;;;;;4.02;67.59;96674.72;5076111;28;1032;-49
2022/03/18 00:38:43;;;;;;;;;;;;;;;3.91;67.32;96673.53;5075908;28;1024;-49
2022/03/18 00:41:09;;;;;;;;;;;;;;;3.94;67.39;96675.16;5076315;28;1224;-49
2022/03/18 00:43:35;;;;;;;;;;;;;;;4.02;67.28;96675.59;5075732;28;1047;-49
2022/03/18 00:46:01;;;;;;;;;;;;;;;4.04;66.29;96681.69;5075826;28;1902;-49
2022/03/18 00:53:56;;;;;;;;;;;;;;;3.88;66.51;96680.78;5075649;28;957;-49
2022/03/18 00:56:23;;;;;;;;;;;;;;;3.78;67.63;96684.88;5075870;28;981;-49
2022/03/18 00:58:49;;;;;;;;;;;;;;;3.77;67.68;96678.69;5075560;28;992;-49
2022/03/18 01:01:15;;;;;;;;;;;;;;;3.83;66.93;96678.41;5075693;28;1059;-49
2022/03/18 01:03:41;;;;;;;;;;;;;;;3.82;67.00;96678.47;5075563;28;1021;-49
2022/03/18 01:06:07;;;;;;;;;;;;;;;3.88;67.17;96686.91;5075613;28;1910;-49
2022/03/18 01:08:33;;;;;;;;;;;;;;;3.97;66.52;96685.59;5075565;28;1215;-49
2022/03/18 01:11:01;;;;;;;;;;;;;;;3.84;67.27;96690.66;5075452;28;1008;-49
2022/03/18 01:13:27;;;;;;;;;;;;;;;3.77;67.67;96689.28;5075282;28;995;-49
2022/03/18 01:15:53;;;;;;;;;;;;;;;3.89;67.00;96693.09;5075108;28;1015;-49
2022/03/18 01:18:19;;;;;;;;;;;;;;;3.90;67.63;96695.63;5075376;28;1099;-49
2022/03/18 01:20:45;;;;;;;;;;;;;;;3.92;66.71;96693.75;5075265;28;1036;-49
2022/03/18 01:23:12;;;;;;;;;;;;;;;3.88;67.57;96694.88;5075303;28;1044;-49
2022/03/18 01:25:38;;;;;;;;;;;;;;;3.83;67.78;96691.63;5073833;28;1906;-49
2022/03/18 01:28:06;;;;;;;;;;;;;;;3.81;67.39;96689.97;5075087;28;1004;-49
2022/03/18 01:30:32;;;;;;;;;;;;;;;3.86;67.37;96683.50;5074906;28;1084;-49
2022/03/18 01:33:02;;;;;;;;;;;;;;;4.05;67.32;96693.09;5075305;28;972;-49
2022/03/18 01:35:28;;;;;;;;;;;;;;;4.05;66.32;96693.94;5075109;28;1048;-49
2022/03/18 01:37:55;;;;;;;;;;;;;;;4.14;66.34;96699.72;5074986;28;1012;-49
2022/03/18 01:40:21;;;;;;;;;;;;;;;4.01;67.13;96708.28;5074786;28;1837;-49
2022/03/18 01:42:47;;;;;;;;;;;;;;;3.96;67.32;96705.03;5074468;28;1228;-49
2022/03/18 01:45:13;;;;;;;;;;;;;;;4.02;66.74;96702.06;5074591;28;1980;-49
2022/03/18 01:47:45;;;;;;;;;;;;;;;3.98;67.20;96708.44;5075034;28;991;-49
2022/03/18 01:50:15;;;;;;;;;;;;;;;3.99;66.60;96710.19;5074793;28;1040;-49
2022/03/18 01:52:42;;;;;;;;;;;;;;;3.88;66.94;96709.88;5074677;28;1161;-49
2022/03/18 01:55:08;;;;;;;;;;;;;;;3.87;67.49;96708.16;5073410;28;834;-49
2022/03/18 01:57:34;;;;;;;;;;;;;;;3.75;68.19;96711.47;5074575;28;1087;-49
2022/03/18 02:00:00;;;;;;;;;;;;;;;3.89;67.84;96707.16;5074235;28;1024;-49
2022/03/18 02:02:26;;;;;;;;;;;;;;;3.99;66.60;96715.47;5074786;28;1144;-49
2022/03/18 02:04:52;;;;;;;;;;;;;;;3.94;67.36;96711.34;5073780;28;1012;-49
2022/03/18 02:07:18;;;;;;;;;;;;;;;4.06;66.78;96710.69;5074517;28;1914;-49
2022/03/18 02:09:44;;;;;;;;;;;;;;;4.09;66.83;96718.47;5074254;28;956;-49
2022/03/18 02:12:11;;;;;;;;;;;;;;;4.03;66.57;96726.75;5072795;28;1111;-49
2022/03/18 02:14:37;;;;;;;;;;;;;;;4.00;66.98;96719.81;5074172;28;1071;-49
2022/03/18 02:17:04;;;;;;;;;;;;;;;3.92;67.55;96720.22;5074207;28;985;-49
2022/03/18 02:19:30;;;;;;;;;;;;;;;3.92;66.71;96719.38;5074439;28;968;-49
2022/03/18 02:21:57;;;;;;;;;;;;;;;3.70;67.73;96720.53;5073909;28;1019;-49
2022/03/18 02:24:23;;;;;;;;;;;;;;;3.68;68.23;96732.97;5074090;28;1032;-49
2022/03/18 02:26:50;;;;;;;;;;;;;;;3.69;67.79;96721.44;5073699;28;1910;-49
2022/03/18 02:29:20;;;;;;;;;;;;;;;3.64;67.70;96725.25;5073987;28;1068;-49
2022/03/18 02:31:47;;;;;;;;;;;;;;;3.56;67.69;96725.66;5073952;28;1039;-49
2022/03/18 02:34:14;;;;;;;;;;;;;;;3.49;67.88;96722.50;5073892;28;1020;-49
2022/03/18 02:36:40;;;;;;;;;;;;;;;3.52;67.66;96726.75;5073825;28;952;-49
2022/03/18 02:39:06;;;;;;;;;;;;;;;3.57;66.92;96719.44;5073877;28;952;-49
2022/03/18 02:41:32;;;;;;;;;;;;;;;3.68;66.40;96727.69;5073291;28;1230;-49
2022/03/18 02:43:59;;;;;;;;;;;;;;;3.74;66.93;96728.28;5073480;28;973;-49
2022/03/18 02:46:25;;;;;;;;;;;;;;;3.43;68.33;96729.88;5073475;28;1911;-49
2022/03/18 02:48:51;;;;;;;;;;;;;;;3.52;67.81;96734.69;5073768;28;965;-49
2022/03/18 02:51:18;;;;;;;;;;;;;;;3.39;68.68;96731.81;5073380;28;1228;-49
2022/03/18 02:53:44;;;;;;;;;;;;;;;3.36;69.17;96729.34;5073551;28;1081;-49
2022/03/18 02:56:12;;;;;;;;;;;;;;;3.37;68.57;96736.34;5072065;28;1104;-49
2022/03/18 02:58:38;;;;;;;;;;;;;;;3.44;68.81;96729.81;5073490;28;1032;-49
2022/03/18 03:01:04;;;;;;;;;;;;;;;3.45;68.59;96744.75;5073445;28;1012;-49
2022/03/18 03:03:30;;;;;;;;;;;;;;;3.33;68.91;96737.44;5073430;28;1064;-48
2022/03/18 03:08:41;;;;;;;;;;;;;;;3.16;70.20;96748.84;5073973;28;992;-47
2022/03/18 03:11:07;;;;;;;;;;;;;;;3.21;69.63;96746.00;5073030;28;1293;-48
2022/03/18 03:13:34;;;;;;;;;;;;;;;3.26;69.61;96751.88;5073398;28;948;-48
2022/03/18 03:16:00;;;;;;;;;;;;;;;3.23;69.36;96752.06;5072297;28;1011;-48
2022/03/18 03:18:28;;;;;;;;;;;;;;;3.17;69.89;96741.75;5073471;28;969;-48
2022/03/18 03:20:54;;;;;;;;;;;;;;;3.17;69.78;96745.28;5073014;28;1016;-48
2022/03/18 03:23:23;;;;;;;;;;;;;;;3.14;69.71;96748.06;5073280;28;1028;-48
2022/03/18 03:25:50;;;;;;;;;;;;;;;3.07;69.93;96757.22;5073323;28;1905;-48
2022/03/18 03:28:19;;;;;;;;;;;;;;;2.95;70.57;96763.97;5073388;28;980;-48
2022/03/18 03:30:45;;;;;;;;;;;;;;;3.02;70.73;96756.63;5073237;28;1020;-48
2022/03/18 03:33:11;;;;;;;;;;;;;;;3.15;70.26;96755.09;5073051;28;969;-48
2022/03/18 03:35:37;;;;;;;;;;;;;;;3.18;70.22;96764.63;5073129;28;1083;-48
2022/03/18 03:38:04;;;;;;;;;;;;;;;3.21;69.98;96761.84;5072827;28;1016;-48
2022/03/18 03:40:31;;;;;;;;;;;;;;;3.21;70.17;96760.06;5073243;28;965;-47
2022/03/18 03:42:57;;;;;;;;;;;;;;;3.19;70.11;96764.56;5072476;28;1096;-50
2022/03/18 03:45:23;;;;;;;;;;;;;;;3.23;70.35;96775.84;5073128;28;1902;-48
2022/03/18 03:47:50;;;;;;;;;;;;;;;3.26;70.04;96779.19;5072918;28;952;-50
2022/03/18 03:50:17;;;;;;;;;;;;;;;3.25;68.89;96782.75;5073044;28;1001;-50
2022/03/18 03:52:43;;;;;;;;;;;;;;;3.21;68.85;96785.66;5072657;28;1166;-50
2022/03/18 03:55:12;;;;;;;;;;;;;;;3.26;68.08;96788.91;5073169;28;1036;-50
2022/03/18 03:57:39;;;;;;;;;;;;;;;3.33;68.15;96801.72;5072745;28;1067;-50
2022/03/18 04:00:06;;;;;;;;;;;;;;;3.36;68.59;96794.56;5072973;28;1036;-47
2022/03/18 04:02:32;;;;;;;;;;;;;;;3.30;68.86;96799.25;5072820;28;977;-47
2022/03/18 04:04:58;;;;;;;;;;;;;;;3.19;69.54;96796.28;5072760;28;1037;-47
2022/03/18 04:07:25;;;;;;;;;;;;;;;3.17;69.18;96794.63;5072571;28;1914;-48
2022/03/18 04:09:53;;;;;;;;;;;;;;;3.02;69.64;96805.03;5072934;28;1052;-47
2022/03/18 04:12:20;;;;;;;;;;;;;;;2.97;69.28;96804.41;5072413;28;1091;-47
2022/03/18 04:14:47;;;;;;;;;;;;;;;2.89;69.98;96812.69;5072892;28;1030;-47
2022/03/18 04:17:13;;;;;;;;;;;;;;;3.05;69.13;96807.50;5072767;28;1051;-47
2022/03/18 04:19:39;;;;;;;;;;;;;;;3.10;68.13;96809.94;5072807;28;1043;-47
2022/03/18 04:22:06;;;;;;;;;;;;;;;3.18;68.35;96809.56;5072412;28;1040;-47
2022/03/18 04:24:31;;;;;;;;;;;;;;;3.32;67.89;96821.19;5072632;28;1040;-47
2022/03/18 04:26:58;;;;;;;;;;;;;;;3.21;68.44;96823.50;5072315;28;1914;-47
2022/03/18 04:29:24;;;;;;;;;;;;;;;3.11;68.99;96832.78;5076313;28;1198;-47
2022/03/18 04:31:50;;;;;;;;;;;;;;;2.89;70.09;96823.25;5076251;28;960;-47
2022/03/18 04:34:17;;;;;;;;;;;;;;;2.93;70.31;96827.47;5076168;28;1182;-47
2022/03/18 04:36:43;;;;;;;;;;;;;;;2.89;69.58;96823.25;5076095;28;1091;-47
2022/03/18 04:39:09;;;;;;;;;;;;;;;2.91;69.71;96831.97;5075840;28;1027;-47
2022/03/18 04:41:36;;;;;;;;;;;;;;;2.88;69.66;96834.78;5074974;28;1089;-47
2022/03/18 04:44:02;;;;;;;;;;;;;;;2.79;68.57;96836.97;5075634;28;1028;-47
2022/03/18 04:46:31;;;;;;;;;;;;;;;2.73;68.95;96846.03;5075913;28;1913;-50
2022/03/18 04:48:58;;;;;;;;;;;;;;;2.83;69.05;96831.50;5075760;28;1016;-50
2022/03/18 04:51:24;;;;;;;;;;;;;;;2.77;69.82;96833.53;5075781;28;1162;-50
2022/03/18 04:53:50;;;;;;;;;;;;;;;2.77;69.37;96829.16;5075841;28;1031;-50
2022/03/18 04:59:00;;;;;;;;;;;;;;;2.77;69.94;96842.34;5075649;28;972;-47
2022/03/18 05:01:27;;;;;;;;;;;;;;;2.69;69.49;96837.44;5075750;28;1079;-47
2022/03/18 05:03:53;;;;;;;;;;;;;;;2.65;69.31;96849.03;5075870;28;957;-47
2022/03/18 05:06:19;;;;;;;;;;;;;;;2.72;70.09;96853.13;5075857;28;1959;-47
2022/03/18 05:08:45;;;;;;;;;;;;;;;2.74;68.85;96863.63;5075413;28;996;-47
2022/03/18 05:11:12;;;;;;;;;;;;;;;2.77;68.71;96860.84;5075535;28;1028;-47
2022/03/18 05:13:38;;;;;;;;;;;;;;;2.73;69.09;96864.53;5074060;28;978;-47
2022/03/18 05:16:05;;;;;;;;;;;;;;;2.69;69.53;96870.88;5075429;28;1824;-47
2022/03/18 05:18:31;;;;;;;;;;;;;;;2.76;68.85;96866.19;5075178;28;1028;-47
2022/03/18 05:20:57;;;;;;;;;;;;;;;2.69;69.36;96873.53;5075308;28;1005;-47
2022/03/18 05:23:23;;;;;;;;;;;;;;;2.63;69.12;96873.81;5075261;28;1000;-47
2022/03/18 05:25:49;;;;;;;;;;;;;;;2.57;69.70;96879.38;5075298;28;1989;-47
2022/03/18 05:28:17;;;;;;;;;;;;;;;2.61;69.89;96886.25;5075007;28;1870;-47
2022/03/18 05:30:44;;;;;;;;;;;;;;;2.57;70.32;96889.94;5075168;28;1012;-47
2022/03/18 05:33:10;;;;;;;;;;;;;;;2.57;70.82;96890.81;5074934;28;1028;-47
2022/03/18 05:35:36;;;;;;;;;;;;;;;2.43;72.65;96903.75;5075355;28;1078;-47
2022/03/18 05:38:02;;;;;;;;;;;;;;;2.29;72.84;96909.66;5074981;28;1177;-47
2022/03/18 05:40:28;;;;;;;;;;;;;;;2.29;74.05;96907.88;5073869;28;1068;-47
2022/03/18 05:42:54;;;;;;;;;;;;;;;2.22;74.49;96911.72;5073136;28;1104;-47
2022/03/18 05:45:22;;;;;;;;;;;;;;;2.28;74.69;96921.16;5074899;28;1012;-47
2022/03/18 05:47:48;;;;;;;;;;;;;;;2.17;75.15;96916.34;5074664;28;961;-48
2022/03/18 05:50:15;;;;;;;;;;;;;;;2.05;75.63;96919.47;5074661;28;1029;-48
2022/03/18 05:52:43;;;;;;;;;;;;;;;1.93;77.10;96927.00;5074733;28;1146;-51
2022/03/18 05:55:09;;;;;;;;;;;;;;;1.96;77.08;96931.31;5073272;28;1016;-49
2022/03/18 05:57:35;;;;;;;;;;;;;;;1.97;77.04;96933.00;5074655;28;1116;-49
2022/03/18 06:00:01;;;;;;;;;;;;;;;2.11;75.95;96928.00;5074888;28;1087;-49
2022/03/18 06:02:28;;;;;;;;;;;;;;;1.99;76.94;96936.44;5074550;28;1055;-49
2022/03/18 06:04:54;;;;;;;;;;;;;;;1.97;77.14;96933.00;5074477;28;1036;-48
2022/03/18 06:07:20;;;;;;;;;;;;;;;1.91;77.77;96949.94;5074346;28;1902;-48
2022/03/18 06:12:31;;;;;;;;;;;;;;;2.10;77.71;96957.94;5074233;28;972;-49
2022/03/18 06:14:57;;;;;;;;;;;;;;;2.16;77.34;96954.19;5074022;28;1031;-49
2022/03/18 06:17:23;;;;;;;;;;;;;;;2.15;76.32;96958.63;5074521;28;1031;-49
2022/03/18 06:19:49;;;;;;;;;;;;;;;2.22;76.97;96953.94;5074154;28;952;-48
2022/03/18 06:22:15;;;;;;;;;;;;;;;2.28;76.82;96953.69;5074250;28;1102;-49
2022/03/18 06:24:41;;;;;;;;;;;;;;;2.30;75.93;96959.75;5073859;28;1028;-49
2022/03/18 06:27:07;;;;;;;;;;;;;;;2.37;76.10;96967.41;5073928;28;1902;-49
2022/03/18 06:29:33;;;;;;;;;;;;;;;2.37;74.90;96967.41;5073807;28;1023;-48
2022/03/18 06:31:59;;;;;;;;;;;;;;;2.30;76.37;96964.19;5073953;28;1031;-48
2022/03/18 06:34:26;;;;;;;;;;;;;;;2.23;76.29;96974.13;5074002;28;1059;-48
2022/03/18 06:36:52;;;;;;;;;;;;;;;2.23;75.95;96981.19;5073976;28;980;-48
2022/03/18 06:39:20;;;;;;;;;;;;;;;2.26;75.89;96978.44;5073642;28;1000;-49
2022/03/18 06:41:46;;;;;;;;;;;;;;;2.22;75.88;96987.38;5073416;28;1088;-49
2022/03/18 06:44:12;;;;;;;;;;;;;;;2.21;76.06;96989.19;5073542;28;961;-49
2022/03/18 06:46:39;;;;;;;;;;;;;;;2.24;76.13;96989.06;5073882;28;1909;-49
2022/03/18 06:49:06;;;;;;;;;;;;;;;2.17;75.96;96992.03;5073468;28;1079;-49
2022/03/18 06:51:32;;;;;;;;;;;;;;;2.19;76.49;96992.81;5073551;28;1166;-48
2022/03/18 06:53:58;;;;;;;;;;;;;;;2.15;76.14;96994.72;5073431;28;1071;-49
2022/03/18 06:56:25;;;;;;;;;;;;;;;2.07;75.54;97002.09;5073620;28;980;-49
2022/03/18 06:58:51;;;;;;;;;;;;;;;2.32;75.83;97000.13;5073412;28;1076;-49
2022/03/18 07:01:18;;;;;;;;;;;;;;;2.37;75.17;97005.22;5073493;28;1112;-49
2022/03/18 07:03:44;;;;;;;;;;;;;;;2.69;74.19;97001.19;5073406;28;1029;-49
2022/03/18 07:06:10;;;;;;;;;;;;;;;2.88;73.08;97006.53;5073195;28;1977;-48
2022/03/18 07:08:36;;;;;;;;;;;;;;;3.20;72.74;97001.53;5073499;28;1007;-49
2022/03/18 07:11:03;;;;;;;;;;;;;;;3.76;70.76;97002.47;5073282;28;1032;-49
2022/03/18 07:13:29;;;;;;;;;;;;;;;4.28;68.35;97006.97;5073161;28;977;-49
2022/03/18 07:15:55;;;;;;;;;;;;;;;4.98;66.09;96999.81;5073335;28;1040;-49
2022/03/18 07:18:21;;;;;;;;;;;;;;;6.47;62.74;97006.59;5073542;28;984;-49
2022/03/18 07:20:47;;;;;;;;;;;;;;;7.78;57.96;97001.25;5073293;28;1056;-49
2022/03/18 07:23:15;;;;;;;;;;;;;;;13.71;44.47;97007.22;5073320;28;1072;-49
2022/03/18 07:25:42;;;;;;;;;;;;;;;17.87;33.68;97012.19;5073112;28;1906;-50
2022/03/18 07:28:09;;;;;;;;;;;;;;;19.68;30.63;97015.22;5073004;28;1001;-49
2022/03/18 07:30:36;;;;;;;;;;;;;;;20.25;29.11;97017.75;5073290;28;992;-49
2022/03/18 07:33:03;;;;;;;;;;;;;;;16.15;34.26;97007.97;5073079;28;1065;-49
2022/03/18 07:35:29;;;;;;;;;;;;;;;18.07;32.98;97018.19;5073262;28;1013;-49
2022/03/18 07:37:55;;;;;;;;;;;;;;;20.75;27.68;97021.09;5073061;28;980;-49
2022/03/18 07:40:22;;;;;;;;;;;;;;;21.68;26.46;97024.63;5071878;28;969;-49
2022/03/18 07:42:52;;;;;;;;;;;;;;;22.77;25.18;97029.50;5072644;28;1100;-48
2022/03/18 07:45:19;;;;;;;;;;;;;;;22.77;24.61;97026.78;5073179;28;1004;-48
2022/03/18 07:47:46;;;;;;;;;;;;;;;22.74;24.78;97027.16;5073086;28;1913;-49
2022/03/18 07:50:12;;;;;;;;;;;;;;;21.85;25.79;97022.59;5073006;28;1004;-48
2022/03/18 07:52:38;;;;;;;;;;;;;;;21.33;27.33;97026.13;5073226;28;1209;-49
2022/03/18 07:55:04;;;;;;;;;;;;;;;23.08;23.27;97023.75;5072825;28;999;-49
2022/03/18 07:57:30;;;;;;;;;;;;;;;23.87;23.10;97028.25;5072949;28;1117;-49
2022/03/18 07:59:56;;;;;;;;;;;;;;;24.68;22.37;97019.47;5072814;28;1024;-49
2022/03/18 08:02:22;;;;;;;;;;;;;;;24.59;20.97;97026.16;5073656;28;1000;-48
2022/03/18 08:04:51;;;;;;;;;;;;;;;25.12;19.59;97026.31;5076837;28;1023;-49
2022/03/18 08:07:17;;;;;;;;;;;;;;;25.58;20.50;97023.88;5076541;28;1937;-49
2022/03/18 08:09:43;;;;;;;;;;;;;;;24.38;20.43;97028.97;5076839;28;1028;-49
2022/03/18 08:12:10;;;;;;;;;;;;;;;25.67;20.52;97025.38;5076341;28;1245;-49
2022/03/18 08:14:36;;;;;;;;;;;;;;;24.89;21.26;97036.78;5076857;28;1028;-49
2022/03/18 08:17:02;;;;;;;;;;;;;;;17.53;28.52;97031.91;5076319;28;1080;-48
2022/03/18 08:19:28;;;;;;;;;;;;;;;12.61;35.03;97013.84;5076760;28;1003;-48
2022/03/18 08:21:54;;;;;;;;;;;;;;;11.01;39.53;97021.28;5076147;28;1072;-47
2022/03/18 08:24:20;;;;;;;;;;;;;;;14.21;36.00;97010.78;5076878;28;1080;-47
2022/03/18 08:26:46;;;;;;;;;;;;;;;13.25;36.56;97004.00;5076008;28;1917;-47
2022/03/18 08:29:13;;;;;;;;;;;;;;;11.77;37.88;97007.34;5076311;28;1036;-47
2022/03/18 08:31:38;;;;;;;;;;;;;;;9.90;41.80;97008.13;5076145;28;1103;-47
2022/03/18 08:34:05;;;;;;;;;;;;;;;12.17;37.00;97009.50;5076375;28;1039;-47
2022/03/18 08:36:31;;;;;;;;;;;;;;;14.06;36.60;97006.78;5076067;28;1040;-47
2022/03/18 08:38:57;;;;;;;;;;;;;;;14.70;33.49;97016.28;5076108;28;1087;-47
2022/03/18 08:41:23;;;;;;;;;;;;;;;14.09;36.59;97001.13;5075689;28;1216;-48
2022/03/18 08:43:49;;;;;;;;;;;;;;;12.43;38.45;97004.66;5076111;28;1015;-47
2022/03/18 08:46:15;;;;;;;;;;;;;;;12.98;39.38;97008.06;5075940;28;1905;-47
2022/03/18 08:48:43;;;;;;;;;;;;;;;13.43;35.49;97002.44;5076162;28;1011;-48
2022/03/18 08:51:10;;;;;;;;;;;;;;;12.82;37.75;97005.81;5075727;28;1161;-47
2022/03/18 08:53:36;;;;;;;;;;;;;;;12.43;35.82;97005.50;5075984;28;1019;-47
2022/03/18 08:56:03;;;;;;;;;;;;;;;10.34;40.26;97001.34;5075565;28;1048;-47
2022/03/18 08:58:29;;;;;;;;;;;;;;;9.81;39.72;97010.56;5075803;28;996;-47
2022/03/18 09:00:55;;;;;;;;;;;;;;;9.96;40.26;97004.16;5075904;28;1047;-47
2022/03/18 09:03:21;;;;;;;;;;;;;;;9.70;38.88;97006.88;5075802;28;1044;-47
2022/03/18 09:05:47;;;;;;;;;;;;;;;10.56;40.72;97002.41;5075462;28;1914;-47
2022/03/18 09:08:14;;;;;;;;;;;;;;;11.50;33.77;96997.84;5075589;28;1015;-47
2022/03/18 09:10:41;;;;;;;;;;;;;;;11.22;32.10;97009.88;5075476;28;996;-47
2022/03/18 09:13:07;;;;;;;;;;;;;;;10.79;32.56;97006.00;5075303;28;972;-48
2022/03/18 09:15:33;;;;;;;;;;;;;;;10.97;31.93;97002.91;5075614;28;1043;-47
2022/03/18 09:17:59;;;;;;;;;;;;;;;11.13;30.03;97000.72;5075458;28;912;-48
2022/03/18 09:20:26;;;;;;;;;;;;;;;12.02;30.50;96998.19;5075572;28;945;-48
2022/03/18 09:22:52;;;;;;;;;;;;;;;12.49;27.69;96998.78;5075143;28;1074;-48
2022/03/18 09:25:18;;;;;;;;;;;;;;;12.28;26.42;96988.84;5075496;28;1498;-48
2022/03/18 09:27:44;;;;;;;;;;;;;;;12.34;27.99;96995.53;5075294;28;1911;-48
2022/03/18 09:30:11;;;;;;;;;;;;;;;12.65;26.81;96987.59;5075466;28;1003;-48
2022/03/18 09:35:58;;;;;;;;;;;;;;;11.97;28.13;96984.28;5075187;28;662;-48
2022/03/18 09:38:24;;;;;;;;;;;;;;;10.88;32.63;96983.88;5075410;28;1028;-48
2022/03/18 09:40:50;;;;;;;;;;;;;;;10.13;36.09;96971.69;5075117;28;1088;-48
2022/03/18 09:43:17;;;;;;;;;;;;;;;10.04;35.26;96985.72;5074614;28;1231;-48
2022/03/18 09:45:44;;;;;;;;;;;;;;;9.72;36.88;96988.91;5075047;28;2081;-48
2022/03/18 09:48:10;;;;;;;;;;;;;;;9.69;37.15;96988.28;5074754;28;1068;-50
2022/03/18 09:50:37;;;;;;;;;;;;;;;9.47;36.50;96981.81;5074970;28;1213;-50
2022/03/18 09:53:04;;;;;;;;;;;;;;;9.00;37.78;96991.34;5074651;28;945;-50
2022/03/18 09:55:30;;;;;;;;;;;;;;;8.87;38.55;96977.16;5074941;28;1052;-50
2022/03/18 09:57:57;;;;;;;;;;;;;;;8.78;39.24;96981.28;5074552;28;1026;-50
2022/03/18 10:00:23;;;;;;;;;;;;;;;8.52;39.48;96973.28;5074623;28;1024;-50
2022/03/18 10:03:07;;;;;;;;;;;;;;;8.56;37.29;96981.94;5074264;28;1024;-50
2022/03/18 10:05:33;;;;;;;;;;;;;;;8.68;39.78;96980.22;5074606;28;1992;-50
2022/03/18 10:07:59;;;;;;;;;;;;;;;8.85;39.94;96982.59;5073231;28;968;-50
2022/03/18 10:10:28;;;;;;;;;;;;;;;8.96;39.18;96982.69;5074448;28;1044;-50
2022/03/18 10:12:56;;;;;;;;;;;;;;;9.78;40.10;96988.47;5073949;28;964;-50
2022/03/18 10:15:24;;;;;;;;;;;;;;;9.92;37.83;96983.94;5074347;28;999;-49
2022/03/18 10:17:54;;;;;;;;;;;;;;;9.33;37.57;96981.94;5074224;28;972;-49
2022/03/18 10:20:29;;;;;;;;;;;;;;;8.89;39.23;96980.56;5074163;28;992;-49
2022/03/18 10:22:57;;;;;;;;;;;;;;;8.91;38.83;96981.31;5074091;28;976;-50
2022/03/18 10:25:53;;;;;;;;;;;;;;;9.63;39.52;96994.91;5073778;28;1184;-49
2022/03/18 10:28:37;;;;;;;;;;;;;;;9.81;36.60;96979.41;5073925;28;1029;-50
2022/03/18 10:31:19;;;;;;;;;;;;;;;10.15;37.81;96985.78;5073916;28;1024;-50
2022/03/18 10:37:08;;;;;;;;;;;;;;;10.95;38.50;96984.28;5036478;28;1218;-50
2022/03/18 10:39:45;;;;;;;;;;;;;;;10.50;39.24;96973.44;5074053;28;1015;-50
2022/03/18 10:42:12;;;;;;;;;;;;;;;10.95;38.44;96973.56;5073660;28;1113;-50
2022/03/18 10:44:49;;;;;;;;;;;;;;;11.52;37.24;96972.63;5073794;28;1008;-50
2022/03/18 10:47:26;;;;;;;;;;;;;;;11.11;36.87;96963.34;5073495;28;1991;-50
2022/03/18 10:50:13;;;;;;;;;;;;;;;11.03;38.83;96963.13;5073709;28;1036;-50
2022/03/18 10:52:46;;;;;;;;;;;;;;;11.11;37.03;96966.03;5069758;28;1722;-50
2022/03/18 10:55:22;;;;;;;;;;;;;;;11.01;36.54;96959.72;5073590;28;956;-50
2022/03/18 10:57:52;;;;;;;;;;;;;;;10.84;39.06;96968.19;5073339;28;1095;-50
2022/03/18 11:00:19;;;;;;;;;;;;;;;11.29;36.56;96954.88;5073848;28;1056;-50
2022/03/18 11:02:48;;;;;;;;;;;;;;;11.46;35.78;96951.69;5073350;28;1003;-50
2022/03/18 11:05:14;;;;;;;;;;;;;;;10.56;36.56;96954.25;5073496;28;965;-50
2022/03/18 11:07:43;;;;;;;;;;;;;;;10.55;37.52;96956.06;5073221;28;1910;-50
2022/03/18 11:12:56;;;;;;;;;;;;;;;11.06;36.66;96962.00;5073195;28;964;-50
2022/03/18 11:15:25;;;;;;;;;;;;;;;10.73;36.91;96950.28;5073447;28;957;-50
2022/03/18 11:17:55;;;;;;;;;;;;;;;10.27;36.14;96953.75;5073139;28;1012;-50
2022/03/18 11:20:24;;;;;;;;;;;;;;;10.07;34.59;96944.53;5073187;28;1067;-50
2022/03/18 11:22:50;;;;;;;;;;;;;;;10.19;36.33;96943.63;5073276;28;1032;-50
2022/03/18 11:25:16;;;;;;;;;;;;;;;10.06;34.55;96932.16;5073416;28;973;-50
2022/03/18 11:27:44;;;;;;;;;;;;;;;9.88;35.84;96939.72;5073019;28;1914;-50
2022/03/18 11:30:17;;;;;;;;;;;;;;;9.47;35.98;96928.41;5073294;28;972;-49
2022/03/18 11:32:43;;;;;;;;;;;;;;;9.18;35.80;96922.47;5073070;28;972;-50
2022/03/18 11:35:09;;;;;;;;;;;;;;;9.14;36.79;96929.88;5073025;28;1119;-49
2022/03/18 11:37:35;;;;;;;;;;;;;;;8.96;36.18;96921.34;5074419;28;1035;-50
2022/03/18 11:40:30;;;;;;;;;;;;;;;9.16;35.60;96925.28;5077503;28;1019;-49
2022/03/18 11:42:56;;;;;;;;;;;;;;;9.58;35.57;96930.31;5076015;28;1840;-50
2022/03/18 11:45:37;;;;;;;;;;;;;;;9.62;35.00;96917.56;5077219;28;1068;-50
2022/03/18 11:48:33;;;;;;;;;;;;;;;9.80;34.29;96923.41;5077180;28;1146;-50
2022/03/18 11:51:19;;;;;;;;;;;;;;;9.49;33.31;96913.13;5076953;28;1357;-49
2022/03/18 11:53:47;;;;;;;;;;;;;;;9.47;36.58;96922.22;5076673;28;1259;-50
2022/03/18 11:56:13;;;;;;;;;;;;;;;9.62;35.14;96913.09;5077028;28;1004;-49
2022/03/18 11:58:39;;;;;;;;;;;;;;;9.64;35.26;96916.50;5077029;28;1139;-51
2022/03/18 12:01:05;;;;;;;;;;;;;;;9.80;35.10;96912.72;5076864;28;1043;-50
2022/03/18 12:03:36;;;;;;;;;;;;;;;9.78;35.70;96915.50;5076688;28;910;-50
2022/03/18 12:06:02;;;;;;;;;;;;;;;9.79;35.06;96909.19;5076579;28;1906;-51
2022/03/18 12:08:47;;;;;;;;;;;;;;;9.75;34.35;96908.56;5076645;28;1028;-51
2022/03/18 12:11:26;;;;;;;;;;;;;;;9.56;33.84;96906.38;5076751;28;1044;-50
2022/03/18 12:13:52;;;;;;;;;;;;;;;9.52;34.83;96904.91;5076345;28;949;-51
2022/03/18 12:16:19;;;;;;;;;;;;;;;9.61;34.80;96906.03;5076610;28;1124;-50
2022/03/18 12:18:46;;;;;;;;;;;;;;;9.72;35.08;96915.94;5076257;28;1055;-51
2022/03/18 12:21:13;;;;;;;;;;;;;;;9.63;34.77;96919.28;5076681;28;1000;-51
2022/03/18 12:23:39;;;;;;;;;;;;;;;9.80;34.93;96916.22;5076561;28;979;-51
2022/03/18 12:26:06;;;;;;;;;;;;;;;9.74;34.28;96914.84;5076178;28;1996;-50
2022/03/18 12:28:45;;;;;;;;;;;;;;;9.66;35.85;96911.91;5076442;28;980;-51
2022/03/18 12:31:19;;;;;;;;;;;;;;;9.69;33.80;96914.34;5076188;28;1036;-50
2022/03/18 12:33:45;;;;;;;;;;;;;;;9.90;33.85;96903.91;5076256;28;980;-50
2022/03/18 12:36:13;;;;;;;;;;;;;;;9.64;33.80;96913.00;5076364;28;1036;-50
2022/03/18 12:38:46;;;;;;;;;;;;;;;9.40;33.93;96908.47;5076352;28;1052;-50
2022/03/18 12:41:17;;;;;;;;;;;;;;;9.16;33.58;96913.72;5075969;28;1093;-51
2022/03/18 12:43:43;;;;;;;;;;;;;;;9.16;32.81;96903.94;5075940;28;1047;-50
2022/03/18 12:46:12;;;;;;;;;;;;;;;9.16;33.88;96897.72;5075875;28;1898;-50
2022/03/18 12:48:46;;;;;;;;;;;;;;;9.39;33.04;96896.09;5075737;28;976;-50
2022/03/18 12:51:12;;;;;;;;;;;;;;;9.31;34.71;96891.28;5074741;28;1158;-50
2022/03/18 12:53:38;;;;;;;;;;;;;;;9.42;33.54;96890.50;5076108;28;977;-50
2022/03/18 12:56:05;;;;;;;;;;;;;;;9.40;33.12;96889.78;5075691;28;1087;-50
2022/03/18 12:58:38;;;;;;;;;;;;;;;9.10;32.55;96880.31;5075815;28;1024;-50
2022/03/18 13:01:04;;;;;;;;;;;;;;;9.24;32.85;96882.03;5075797;28;1049;-50
2022/03/18 13:03:31;;;;;;;;;;;;;;;9.37;33.14;96887.31;5075669;28;1067;-50
2022/03/18 13:06:04;;;;;;;;;;;;;;;9.24;34.01;96890.03;5075371;28;2050;-50
2022/03/18 13:08:36;;;;;;;;;;;;;;;9.18;33.98;96882.44;5075675;28;1055;-50
2022/03/18 13:11:04;;;;;;;;;;;;;;;9.44;33.76;96888.56;5075352;28;1009;-50
2022/03/18 13:13:31;;;;;;;;;;;;;;;9.49;34.49;96894.44;5075594;28;968;-50
2022/03/18 13:16:01;;;;;;;;;;;;;;;9.24;35.20;96892.69;5075247;28;1036;-50
2022/03/18 13:18:31;;;;;;;;;;;;;;;9.14;34.67;96895.19;5075834;28;968;-50
2022/03/18 13:20:57;;;;;;;;;;;;;;;9.12;34.39;96890.91;5075325;28;913;-50
2022/03/18 13:23:24;;;;;;;;;;;;;;;8.62;35.05;96890.00;5075464;28;1019;-50
2022/03/18 13:25:50;;;;;;;;;;;;;;;8.70;34.80;96882.31;5074977;28;1905;-49
2022/03/18 13:28:16;;;;;;;;;;;;;;;8.95;35.44;96889.44;5075312;28;1108;-50
2022/03/18 13:33:41;;;;;;;;;;;;;;;9.13;33.83;96885.47;5075221;28;1083;-50
2022/03/18 13:36:20;;;;;;;;;;;;;;;8.98;34.60;96882.06;5074913;28;1027;-50